createdAt,value
2023-04-03T00:03:33.461Z,2.30
2023-04-03T00:06:01.409Z,2.85
2023-04-03T00:08:28.483Z,2.20
2023-04-03T00:10:55.506Z,2.22
2023-04-03T00:13:22.352Z,3.13
2023-04-03T00:18:16.169Z,2.03
2023-04-03T00:20:44.237Z,3.13
2023-04-03T00:23:11.566Z,2.78
2023-04-03T00:25:38.586Z,2.50
2023-04-03T00:28:06.012Z,2.78
2023-04-03T00:30:33.588Z,2.35
2023-04-03T00:33:02.314Z,2.35
2023-04-03T00:35:29.975Z,3.00
2023-04-03T00:37:57.614Z,2.78
2023-04-03T00:40:27.730Z,2.67
2023-04-03T00:43:01.085Z,2.17
2023-04-03T00:45:43.958Z,2.80
2023-04-03T00:48:14.914Z,2.08
2023-04-03T00:50:44.545Z,2.35
2023-04-03T00:53:20.679Z,3.20
2023-04-03T00:55:49.449Z,2.40
2023-04-03T00:58:18.809Z,2.58
2023-04-03T01:00:54.713Z,2.10
2023-04-03T01:03:22.457Z,2.53
2023-04-03T01:05:49.855Z,3.03
2023-04-03T01:08:17.867Z,3.05
2023-04-03T01:10:44.698Z,2.50
2023-04-03T01:13:27.309Z,2.83
2023-04-03T01:15:54.712Z,2.90
2023-04-03T01:18:25.159Z,2.90
2023-04-03T01:21:22.465Z,2.38
2023-04-03T01:24:12.585Z,2.65
2023-04-03T01:26:39.969Z,2.33
2023-04-03T01:29:07.699Z,2.50
2023-04-03T01:31:36.545Z,2.65
2023-04-03T01:34:08.391Z,2.90
2023-04-03T01:36:36.136Z,2.47
2023-04-03T01:39:03.225Z,1.60
2023-04-03T01:41:30.383Z,2.20
2023-04-03T01:44:05.762Z,2.55
2023-04-03T01:46:33.901Z,2.25
2023-04-03T01:49:01.200Z,2.60
2023-04-03T01:51:29.133Z,2.38
2023-04-03T01:53:56.064Z,2.55
2023-04-03T01:56:23.286Z,2.50
2023-04-03T01:58:50.820Z,2.25
2023-04-03T02:01:18.967Z,2.00
2023-04-03T02:03:47.188Z,2.08
2023-04-03T02:06:14.146Z,1.75
2023-04-03T02:08:42.747Z,2.10
2023-04-03T02:11:09.730Z,2.05
2023-04-03T02:16:08.831Z,1.77
2023-04-03T02:18:35.990Z,1.73
2023-04-03T02:21:03.093Z,1.95
2023-04-03T02:23:30.080Z,2.00
2023-04-03T02:26:09.137Z,1.80
2023-04-03T02:28:36.496Z,1.80
2023-04-03T02:31:04.614Z,1.70
2023-04-03T02:33:32.509Z,1.30
2023-04-03T02:36:00.485Z,1.65
2023-04-03T02:38:29.796Z,1.67
2023-04-03T02:41:08.922Z,1.42
2023-04-03T02:43:36.450Z,1.55
2023-04-03T02:46:04.538Z,1.42
2023-04-03T02:48:32.702Z,1.45
2023-04-03T02:50:59.901Z,1.48
2023-04-03T02:53:26.610Z,1.50
2023-04-03T02:55:54.176Z,1.38
2023-04-03T02:58:23.548Z,1.33
2023-04-03T03:00:51.431Z,1.65
2023-04-03T03:03:18.495Z,1.38
2023-04-03T03:05:45.743Z,1.55
2023-04-03T03:08:13.039Z,1.33
2023-04-03T03:10:40.212Z,1.80
2023-04-03T03:13:08.441Z,1.70
2023-04-03T03:15:35.447Z,1.30
2023-04-03T03:18:03.238Z,1.52
2023-04-03T03:20:30.380Z,1.75
2023-04-03T03:22:58.984Z,1.67
2023-04-03T03:25:25.927Z,1.55
2023-04-03T03:27:52.700Z,1.60
2023-04-03T03:30:19.788Z,1.95
2023-04-03T03:32:47.389Z,1.45
2023-04-03T03:35:14.400Z,1.90
2023-04-03T03:37:41.640Z,1.60
2023-04-03T03:40:09.627Z,1.38
2023-04-03T03:42:37.923Z,1.75
2023-04-03T03:47:32.367Z,1.75
2023-04-03T03:50:00.219Z,1.52
2023-04-03T03:52:27.642Z,1.58
2023-04-03T03:54:55.606Z,1.50
2023-04-03T03:57:23.187Z,1.20
2023-04-03T03:59:52.883Z,1.17
2023-04-03T04:02:20.375Z,1.27
2023-04-03T04:04:47.393Z,1.50
2023-04-03T04:07:40.636Z,2.00
2023-04-03T04:10:08.554Z,1.85
2023-04-03T04:12:48.649Z,2.53
2023-04-03T04:15:17.540Z,3.05
2023-04-03T04:20:13.330Z,1.40
2023-04-03T04:22:41.988Z,2.92
2023-04-03T04:25:11.552Z,2.08
2023-04-03T04:27:40.357Z,1.65
2023-04-03T04:30:09.855Z,3.08
2023-04-03T04:32:38.464Z,1.35
2023-04-03T04:35:06.900Z,1.95
2023-04-03T04:37:36.907Z,1.67
2023-04-03T04:40:04.704Z,2.20
2023-04-03T04:42:32.720Z,2.20
2023-04-03T04:45:00.558Z,2.17
2023-04-03T04:47:30.106Z,2.45
2023-04-03T04:50:02.629Z,2.00
2023-04-03T04:52:30.114Z,2.88
2023-04-03T04:54:57.152Z,1.83
2023-04-03T04:57:24.165Z,2.70
2023-04-03T04:59:51.364Z,2.13
2023-04-03T05:02:18.921Z,2.45
2023-04-03T05:04:47.101Z,1.48
2023-04-03T05:07:21.132Z,1.98
2023-04-03T05:09:48.440Z,1.85
2023-04-03T05:12:20.420Z,1.50
2023-04-03T05:14:54.574Z,2.22
2023-04-03T05:17:22.143Z,1.83
2023-04-03T05:19:53.563Z,1.77
2023-04-03T05:22:23.508Z,1.38
2023-04-03T05:24:53.644Z,1.88
2023-04-03T05:27:25.436Z,2.00
2023-04-03T05:29:56.164Z,1.90
2023-04-03T05:32:26.516Z,3.05
2023-04-03T05:35:04.113Z,2.65
2023-04-03T05:37:31.665Z,1.67
2023-04-03T05:39:59.190Z,2.67
2023-04-03T05:42:39.041Z,2.05
2023-04-03T05:45:09.416Z,2.28
2023-04-03T05:47:39.059Z,2.53
2023-04-03T05:50:08.133Z,2.20
2023-04-03T05:52:41.508Z,1.95
2023-04-03T05:57:36.832Z,1.42
2023-04-03T06:00:10.720Z,2.05
2023-04-03T06:02:52.206Z,1.52
2023-04-03T06:05:23.940Z,2.75
2023-04-03T06:07:52.162Z,2.63
2023-04-03T06:10:20.031Z,2.25
2023-04-03T06:12:47.951Z,2.63
2023-04-03T06:15:18.142Z,1.90
2023-04-03T06:17:47.203Z,2.28
2023-04-03T06:20:14.637Z,1.70
2023-04-03T06:22:43.205Z,2.60
2023-04-03T06:25:13.252Z,1.98
2023-04-03T06:27:40.508Z,1.95
2023-04-03T06:30:08.398Z,2.42
2023-04-03T06:32:35.997Z,2.45
2023-04-03T06:35:03.637Z,2.40
2023-04-03T06:37:31.912Z,2.30
2023-04-03T06:40:02.457Z,2.03
2023-04-03T06:42:31.243Z,2.08
2023-04-03T06:45:09.175Z,1.70
2023-04-03T06:47:36.199Z,2.03
2023-04-03T06:50:04.334Z,2.30
2023-04-03T06:52:33.271Z,2.17
2023-04-03T06:55:03.617Z,2.30
2023-04-03T06:57:30.985Z,2.42
2023-04-03T06:59:58.104Z,2.60
2023-04-03T07:02:26.528Z,2.55
2023-04-03T07:04:54.335Z,2.28
2023-04-03T07:07:21.926Z,2.75
2023-04-03T07:09:49.348Z,2.40
2023-04-03T07:12:17.222Z,3.35
2023-04-03T07:14:45.171Z,2.83
2023-04-03T07:17:34.554Z,1.98
2023-04-03T07:20:02.414Z,2.78
2023-04-03T07:22:32.237Z,2.63
2023-04-03T07:25:01.157Z,2.28
2023-04-03T07:27:55.525Z,2.28
2023-04-03T07:30:23.155Z,2.60
2023-04-03T07:32:50.858Z,2.60
2023-04-03T07:35:18.904Z,2.88
2023-04-03T07:37:48.765Z,2.15
2023-04-03T07:40:16.770Z,2.40
2023-04-03T07:42:46.996Z,2.10
2023-04-03T07:45:19.314Z,2.42
2023-04-03T07:47:51.505Z,2.60
2023-04-03T07:50:25.671Z,2.90
2023-04-03T07:52:57.801Z,2.22
2023-04-03T07:55:29.383Z,2.00
2023-04-03T07:57:57.526Z,2.70
2023-04-03T08:00:24.767Z,2.05
2023-04-03T08:02:53.154Z,2.15
2023-04-03T08:05:21.146Z,1.85
2023-04-03T08:07:53.259Z,2.20
2023-04-03T08:10:26.557Z,2.30
2023-04-03T08:12:54.028Z,2.42
2023-04-03T08:15:22.809Z,1.80
2023-04-03T08:17:50.773Z,1.77
2023-04-03T08:20:19.198Z,2.33
2023-04-03T08:22:57.238Z,2.00
2023-04-03T08:25:34.320Z,2.08
2023-04-03T08:28:10.762Z,2.28
2023-04-03T08:30:45.260Z,1.77
2023-04-03T08:33:26.186Z,2.42
2023-04-03T08:35:53.770Z,2.15
2023-04-03T08:38:21.313Z,1.88
2023-04-03T08:40:49.539Z,2.10
2023-04-03T08:43:49.305Z,2.15
2023-04-03T08:46:24.502Z,1.92
2023-04-03T08:48:57.715Z,1.88
2023-04-03T08:51:27.636Z,2.25
2023-04-03T08:54:04.505Z,2.05
2023-04-03T08:56:34.895Z,1.88
2023-04-03T08:59:11.341Z,2.40
2023-04-03T09:01:49.807Z,2.03
2023-04-03T09:04:20.861Z,1.83
2023-04-03T09:07:23.659Z,2.03
2023-04-03T09:09:53.418Z,2.60
2023-04-03T09:12:27.856Z,1.92
2023-04-03T09:15:37.784Z,1.88
2023-04-03T09:18:21.988Z,2.00
2023-04-03T09:20:59.429Z,2.40
2023-04-03T09:23:44.312Z,1.90
2023-04-03T09:28:50.009Z,1.75
2023-04-03T09:31:28.556Z,1.80
2023-04-03T09:34:04.724Z,1.77
2023-04-03T09:36:47.606Z,2.33
2023-04-03T09:39:24.602Z,1.60
2023-04-03T09:42:24.268Z,1.70
2023-04-03T09:49:09.033Z,1.85
2023-04-03T09:51:38.306Z,1.40
2023-04-03T09:54:32.379Z,1.48
2023-04-03T09:57:10.024Z,1.70
2023-04-03T10:00:02.071Z,1.73
2023-04-03T10:02:41.475Z,1.70
2023-04-03T10:05:37.525Z,2.03
2023-04-03T10:08:22.733Z,1.60
2023-04-03T10:11:27.482Z,1.92
2023-04-03T10:13:59.117Z,1.55
2023-04-03T10:16:46.983Z,1.63
2023-04-03T10:19:31.273Z,1.27
2023-04-03T10:22:20.113Z,1.52
2023-04-03T10:25:30.512Z,1.58
2023-04-03T10:28:22.131Z,1.42
2023-04-03T10:30:55.370Z,1.50
2023-04-03T10:33:51.385Z,1.90
2023-04-03T10:36:23.156Z,1.88
2023-04-03T10:38:56.422Z,1.98
2023-04-03T10:41:42.117Z,2.13
2023-04-03T10:44:36.554Z,1.77
2023-04-03T10:47:26.176Z,1.70
2023-04-03T10:50:21.705Z,1.42
2023-04-03T10:53:18.351Z,1.95
2023-04-03T10:56:11.480Z,1.70
2023-04-03T10:58:44.220Z,1.55
2023-04-03T11:03:56.094Z,1.75
2023-04-03T11:06:29.199Z,1.60
2023-04-03T11:09:08.012Z,1.70
2023-04-03T11:14:07.070Z,1.38
2023-04-03T11:16:51.013Z,1.70
2023-04-03T11:19:37.649Z,1.85
2023-04-03T11:22:15.126Z,1.30
2023-04-03T11:24:48.731Z,1.70
2023-04-03T11:27:25.996Z,1.50
2023-04-03T11:29:57.366Z,1.90
2023-04-03T11:32:52.495Z,1.30
2023-04-03T11:35:35.398Z,1.73
2023-04-03T11:38:09.174Z,1.30
2023-04-03T11:40:39.366Z,1.30
2023-04-03T11:43:28.543Z,1.50
2023-04-03T11:46:06.669Z,1.40
2023-04-03T11:48:49.632Z,1.25
2023-04-03T11:51:22.017Z,1.10
2023-04-03T11:53:52.777Z,1.33
2023-04-03T11:56:40.174Z,1.15
2023-04-03T11:59:14.880Z,1.42
2023-04-03T12:01:54.066Z,1.30
2023-04-03T12:04:25.373Z,1.23
2023-04-03T12:07:19.475Z,1.48
2023-04-03T12:09:46.950Z,1.30
2023-04-03T12:12:27.659Z,1.52
2023-04-03T12:14:56.090Z,1.55
2023-04-03T12:17:32.086Z,1.38
2023-04-03T12:20:02.117Z,0.93
2023-04-03T12:22:29.577Z,1.60
2023-04-03T12:24:59.376Z,1.55
2023-04-03T12:27:37.375Z,1.13
2023-04-03T12:30:05.016Z,1.65
2023-04-03T12:32:49.515Z,1.20
2023-04-03T12:35:22.156Z,1.52
2023-04-03T12:38:11.894Z,1.25
2023-04-03T12:40:59.944Z,1.33
2023-04-03T12:43:35.736Z,1.13
2023-04-03T12:46:17.038Z,1.35
2023-04-03T12:48:56.873Z,1.40
2023-04-03T12:51:36.446Z,1.30
2023-04-03T12:54:15.535Z,1.30
2023-04-03T12:59:25.067Z,1.25
2023-04-03T13:02:18.375Z,1.40
2023-04-03T13:04:47.163Z,1.10
2023-04-03T13:07:33.574Z,1.70
2023-04-03T13:10:16.136Z,1.52
2023-04-03T13:12:51.975Z,1.45
2023-04-03T13:15:59.179Z,0.82
2023-04-03T13:18:32.721Z,0.95
2023-04-03T13:21:16.514Z,1.20
2023-04-03T13:24:00.573Z,1.23
2023-04-03T13:26:36.117Z,1.30
2023-04-03T13:29:12.807Z,1.10
2023-04-03T13:31:46.542Z,1.17
2023-04-03T13:34:18.158Z,1.15
2023-04-03T13:36:57.010Z,1.20
2023-04-03T13:40:05.604Z,1.08
2023-04-03T13:42:38.495Z,1.38
2023-04-03T13:45:25.111Z,1.10
2023-04-03T13:48:03.456Z,1.15
2023-04-03T13:53:20.055Z,1.33
2023-04-03T13:55:59.334Z,1.13
2023-04-03T13:59:18.289Z,0.95
2023-04-03T14:01:47.950Z,2.50
2023-04-03T14:04:30.095Z,0.90
2023-04-03T14:06:59.288Z,0.88
2023-04-03T14:09:28.654Z,0.80
2023-04-03T14:12:02.036Z,1.02
2023-04-03T14:14:32.434Z,1.15
2023-04-03T14:17:03.372Z,0.95
2023-04-03T14:19:33.214Z,1.80
2023-04-03T14:22:09.532Z,2.25
2023-04-03T14:24:46.433Z,1.40
2023-04-03T14:27:25.748Z,2.03
2023-04-03T14:29:56.442Z,1.25
2023-04-03T14:32:25.440Z,4.15
2023-04-03T14:34:54.272Z,2.08
2023-04-03T14:37:26.376Z,0.90
2023-04-03T14:39:56.887Z,0.95
2023-04-03T14:42:27.345Z,1.15
2023-04-03T14:44:54.813Z,1.00
2023-04-03T14:47:31.326Z,1.17
2023-04-03T14:50:02.377Z,1.45
2023-04-03T14:52:33.307Z,1.00
2023-04-03T14:55:03.317Z,1.15
2023-04-03T14:57:33.120Z,0.93
2023-04-03T15:00:18.367Z,0.80
2023-04-03T15:03:26.310Z,1.30
2023-04-03T15:05:54.060Z,1.23
2023-04-03T15:08:30.327Z,1.40
2023-04-03T15:10:58.093Z,1.20
2023-04-03T15:17:25.957Z,1.33
2023-04-03T15:19:53.133Z,2.70
2023-04-03T15:22:21.843Z,1.95
2023-04-03T15:24:49.362Z,1.00
2023-04-03T15:27:17.539Z,1.15
2023-04-03T15:29:45.373Z,0.85
2023-04-03T15:32:14.781Z,1.90
2023-04-03T15:34:42.267Z,1.20
2023-04-03T15:37:09.193Z,2.10
2023-04-03T15:39:36.689Z,1.67
2023-04-03T15:42:07.586Z,1.20
2023-04-03T15:44:36.135Z,1.02
2023-04-03T15:47:07.049Z,1.02
2023-04-03T15:49:36.414Z,1.00
2023-04-03T15:52:04.859Z,1.02
2023-04-03T15:54:31.827Z,1.48
2023-04-03T15:56:59.108Z,1.15
2023-04-03T15:59:26.181Z,1.48
2023-04-03T16:01:58.337Z,1.48
2023-04-03T16:04:30.135Z,1.70
2023-04-03T16:07:34.585Z,1.30
2023-04-03T16:10:03.800Z,1.02
2023-04-03T16:12:30.585Z,2.50
2023-04-03T16:15:32.753Z,1.13
2023-04-03T16:18:17.781Z,1.65
2023-04-03T16:20:51.788Z,1.35
2023-04-03T16:23:19.824Z,1.23
2023-04-03T16:26:02.824Z,1.10
2023-04-03T16:28:35.688Z,1.52
2023-04-03T16:31:08.775Z,1.13
2023-04-03T16:33:39.469Z,0.93
2023-04-03T16:36:07.480Z,1.30
2023-04-03T16:38:39.890Z,0.95
2023-04-03T16:41:07.363Z,1.85
2023-04-03T16:46:12.199Z,1.23
2023-04-03T16:48:39.393Z,1.38
2023-04-03T16:51:07.210Z,1.20
2023-04-03T16:53:52.248Z,1.50
2023-04-03T16:56:20.636Z,1.10
2023-04-03T16:58:48.985Z,1.33
2023-04-03T17:01:20.494Z,1.27
2023-04-03T17:03:49.380Z,1.20
2023-04-03T17:06:21.424Z,1.70
2023-04-03T17:08:51.333Z,1.83
2023-04-03T17:14:03.831Z,1.58
2023-04-03T17:16:33.931Z,1.40
2023-04-03T17:19:01.364Z,1.75
2023-04-03T17:21:30.144Z,1.35
2023-04-03T17:24:01.289Z,1.55
2023-04-03T17:26:29.525Z,1.40
2023-04-03T17:28:58.544Z,1.70
2023-04-03T17:31:29.349Z,1.20
2023-04-03T17:33:56.981Z,2.05
2023-04-03T17:36:24.017Z,1.55
2023-04-03T17:38:52.166Z,2.53
2023-04-03T17:41:19.673Z,2.90
2023-04-03T17:44:15.837Z,2.40
2023-04-03T17:46:43.364Z,1.63
2023-04-03T17:49:15.162Z,1.20
2023-04-03T17:51:42.692Z,1.38
2023-04-03T17:54:11.384Z,1.50
2023-04-03T17:56:38.842Z,1.35
2023-04-03T17:59:08.019Z,1.92
2023-04-03T18:01:37.298Z,2.03
2023-04-03T18:04:06.596Z,1.65
2023-04-03T18:06:41.642Z,1.50
